sensor_id;sensor_type;location;lat;lon;timestamp;pressure;altitude;pressure_sealevel;temperature;humidity
70053;BME280;57398;52.032;4.376;2023-06-26T00:02:40;102925.66;;;21.50;nan
70053;BME280;57398;52.032;4.376;2023-06-26T00:05:28;102956.97;;;21.41;nan
70053;BME280;57398;52.032;4.376;2023-06-26T00:08:17;102932.84;;;21.38;nan
70053;BME280;57398;52.032;4.376;2023-06-26T00:11:05;102923.00;;;21.33;nan
70053;BME280;57398;52.032;4.376;2023-06-26T00:13:54;102833.19;;;21.21;nan
70053;BME280;57398;52.032;4.376;2023-06-26T00:16:43;102777.38;;;21.18;nan
70053;BME280;57398;52.032;4.376;2023-06-26T00:19:31;102778.59;;;21.10;nan
70053;BME280;57398;52.032;4.376;2023-06-26T00:22:20;102794.34;;;21.05;nan
70053;BME280;57398;52.032;4.376;2023-06-26T00:25:09;102798.19;;;20.97;nan
70053;BME280;57398;52.032;4.376;2023-06-26T00:27:57;102799.00;;;20.98;nan
70053;BME280;57398;52.032;4.376;2023-06-26T00:30:47;102812.34;;;20.91;nan
70053;BME280;57398;52.032;4.376;2023-06-26T00:33:35;102819.50;;;20.74;nan
70053;BME280;57398;52.032;4.376;2023-06-26T00:36:23;102807.84;;;20.58;nan
70053;BME280;57398;52.032;4.376;2023-06-26T00:39:13;102783.41;;;20.50;nan
70053;BME280;57398;52.032;4.376;2023-06-26T00:42:02;102773.31;;;20.47;nan
70053;BME280;57398;52.032;4.376;2023-06-26T00:44:50;102735.97;;;20.39;nan
70053;BME280;57398;52.032;4.376;2023-06-26T00:47:39;102690.03;;;20.40;nan
70053;BME280;57398;52.032;4.376;2023-06-26T00:56:05;102309.41;;;20.38;nan
70053;BME280;57398;52.032;4.376;2023-06-26T00:58:53;102262.91;;;20.32;nan
70053;BME280;57398;52.032;4.376;2023-06-26T01:01:41;102218.00;;;20.26;nan
70053;BME280;57398;52.032;4.376;2023-06-26T01:04:31;102163.66;;;20.25;nan
70053;BME280;57398;52.032;4.376;2023-06-26T01:07:21;102138.84;;;20.26;nan
70053;BME280;57398;52.032;4.376;2023-06-26T01:10:10;102125.84;;;20.20;nan
70053;BME280;57398;52.032;4.376;2023-06-26T01:12:58;102082.84;;;20.19;nan
70053;BME280;57398;52.032;4.376;2023-06-26T01:15:47;102091.63;;;20.25;nan
70053;BME280;57398;52.032;4.376;2023-06-26T01:18:37;102083.94;;;20.23;nan
70053;BME280;57398;52.032;4.376;2023-06-26T01:21:31;102084.72;;;20.24;nan
70053;BME280;57398;52.032;4.376;2023-06-26T01:24:20;102060.44;;;20.22;nan
70053;BME280;57398;52.032;4.376;2023-06-26T01:27:16;102018.44;;;20.15;nan
70053;BME280;57398;52.032;4.376;2023-06-26T01:32:54;101973.72;;;19.93;nan
70053;BME280;57398;52.032;4.376;2023-06-26T01:35:42;101967.66;;;19.93;nan
70053;BME280;57398;52.032;4.376;2023-06-26T01:38:30;101954.22;;;19.94;nan
70053;BME280;57398;52.032;4.376;2023-06-26T01:41:19;101950.75;;;19.88;nan
70053;BME280;57398;52.032;4.376;2023-06-26T01:44:17;101961.56;;;19.87;nan
70053;BME280;57398;52.032;4.376;2023-06-26T01:52:59;101933.75;;;19.74;nan
70053;BME280;57398;52.032;4.376;2023-06-26T01:55:51;101940.63;;;19.70;nan
70053;BME280;57398;52.032;4.376;2023-06-26T02:01:32;101941.03;;;19.62;nan
70053;BME280;57398;52.032;4.376;2023-06-26T02:04:20;101947.84;;;19.58;nan
70053;BME280;57398;52.032;4.376;2023-06-26T02:07:09;101944.94;;;19.54;nan
70053;BME280;57398;52.032;4.376;2023-06-26T02:09:57;101944.94;;;19.54;nan
70053;BME280;57398;52.032;4.376;2023-06-26T02:12:45;101936.09;;;19.38;nan
70053;BME280;57398;52.032;4.376;2023-06-26T02:15:33;101935.09;;;19.44;nan
70053;BME280;57398;52.032;4.376;2023-06-26T02:18:23;101929.34;;;19.20;nan
70053;BME280;57398;52.032;4.376;2023-06-26T02:21:13;101942.53;;;19.20;nan
70053;BME280;57398;52.032;4.376;2023-06-26T02:24:01;101957.34;;;19.27;nan
70053;BME280;57398;52.032;4.376;2023-06-26T02:26:49;101969.66;;;19.21;nan
70053;BME280;57398;52.032;4.376;2023-06-26T02:29:38;101960.41;;;19.18;nan
70053;BME280;57398;52.032;4.376;2023-06-26T02:32:27;101965.03;;;19.06;nan
70053;BME280;57398;52.032;4.376;2023-06-26T02:35:16;101969.91;;;18.92;nan
70053;BME280;57398;52.032;4.376;2023-06-26T02:38:04;101965.78;;;18.79;nan
70053;BME280;57398;52.032;4.376;2023-06-26T02:40:52;101968.91;;;18.76;nan
70053;BME280;57398;52.032;4.376;2023-06-26T02:46:29;101964.50;;;18.60;nan
70053;BME280;57398;52.032;4.376;2023-06-26T02:49:17;101967.03;;;18.55;nan
70053;BME280;57398;52.032;4.376;2023-06-26T02:52:10;101963.72;;;18.42;nan
70053;BME280;57398;52.032;4.376;2023-06-26T02:54:58;101969.78;;;18.43;nan
70053;BME280;57398;52.032;4.376;2023-06-26T02:57:46;101980.25;;;18.38;nan
70053;BME280;57398;52.032;4.376;2023-06-26T03:00:34;101987.56;;;18.36;nan
70053;BME280;57398;52.032;4.376;2023-06-26T03:03:28;101983.59;;;18.33;nan
70053;BME280;57398;52.032;4.376;2023-06-26T03:06:16;101978.91;;;18.35;nan
70053;BME280;57398;52.032;4.376;2023-06-26T03:09:05;101977.00;;;18.31;nan
70053;BME280;57398;52.032;4.376;2023-06-26T03:11:54;101979.56;;;18.26;nan
70053;BME280;57398;52.032;4.376;2023-06-26T03:14:42;101985.13;;;18.29;nan
70053;BME280;57398;52.032;4.376;2023-06-26T03:17:33;101991.66;;;18.27;nan
70053;BME280;57398;52.032;4.376;2023-06-26T03:20:21;102000.28;;;18.22;nan
70053;BME280;57398;52.032;4.376;2023-06-26T03:23:09;102023.09;;;18.16;nan
70053;BME280;57398;52.032;4.376;2023-06-26T03:25:59;102000.94;;;18.12;nan
70053;BME280;57398;52.032;4.376;2023-06-26T03:28:47;102002.59;;;18.02;nan
70053;BME280;57398;52.032;4.376;2023-06-26T03:31:35;102000.69;;;17.97;nan
70053;BME280;57398;52.032;4.376;2023-06-26T03:34:23;102002.97;;;17.93;nan
70053;BME280;57398;52.032;4.376;2023-06-26T03:37:11;101996.16;;;17.92;nan
70053;BME280;57398;52.032;4.376;2023-06-26T03:39:59;101993.66;;;17.86;nan
70053;BME280;57398;52.032;4.376;2023-06-26T03:42:49;101997.34;;;17.85;nan
70053;BME280;57398;52.032;4.376;2023-06-26T03:45:37;101997.09;;;17.86;nan
70053;BME280;57398;52.032;4.376;2023-06-26T03:48:25;101989.69;;;17.83;nan
70053;BME280;57398;52.032;4.376;2023-06-26T03:51:14;102002.84;;;17.83;nan
70053;BME280;57398;52.032;4.376;2023-06-26T03:54:03;101999.84;;;17.79;nan
70053;BME280;57398;52.032;4.376;2023-06-26T03:56:51;102013.69;;;17.75;nan
70053;BME280;57398;52.032;4.376;2023-06-26T03:59:40;102015.06;;;17.77;nan
70053;BME280;57398;52.032;4.376;2023-06-26T04:02:29;102023.97;;;17.76;nan
70053;BME280;57398;52.032;4.376;2023-06-26T04:05:17;102027.34;;;17.89;nan
70053;BME280;57398;52.032;4.376;2023-06-26T04:08:05;102029.94;;;18.00;nan
70053;BME280;57398;52.032;4.376;2023-06-26T04:10:53;102066.56;;;18.07;nan
70053;BME280;57398;52.032;4.376;2023-06-26T04:13:44;102052.63;;;18.07;nan
70053;BME280;57398;52.032;4.376;2023-06-26T04:16:34;102066.41;;;18.14;nan
70053;BME280;57398;52.032;4.376;2023-06-26T04:22:10;102057.91;;;18.24;nan
70053;BME280;57398;52.032;4.376;2023-06-26T04:25:01;102070.16;;;18.18;nan
70053;BME280;57398;52.032;4.376;2023-06-26T04:27:50;102074.63;;;18.17;nan
70053;BME280;57398;52.032;4.376;2023-06-26T04:33:27;102078.53;;;18.15;nan
70053;BME280;57398;52.032;4.376;2023-06-26T04:36:16;102083.00;;;18.14;nan
70053;BME280;57398;52.032;4.376;2023-06-26T04:39:05;102086.88;;;18.12;nan
70053;BME280;57398;52.032;4.376;2023-06-26T04:41:53;102092.63;;;17.92;nan
70053;BME280;57398;52.032;4.376;2023-06-26T04:44:41;102092.34;;;17.93;nan
70053;BME280;57398;52.032;4.376;2023-06-26T04:47:29;102106.00;;;18.07;nan
70053;BME280;57398;52.032;4.376;2023-06-26T04:50:19;102114.78;;;18.13;nan
70053;BME280;57398;52.032;4.376;2023-06-26T04:53:07;102127.94;;;18.30;nan
70053;BME280;57398;52.032;4.376;2023-06-26T04:55:56;102115.13;;;18.33;nan
70053;BME280;57398;52.032;4.376;2023-06-26T04:58:44;102117.53;;;18.35;nan
70053;BME280;57398;52.032;4.376;2023-06-26T05:01:32;102118.22;;;18.47;nan
70053;BME280;57398;52.032;4.376;2023-06-26T05:04:20;102145.03;;;18.61;nan
70053;BME280;57398;52.032;4.376;2023-06-26T05:07:11;102147.88;;;18.59;nan
70053;BME280;57398;52.032;4.376;2023-06-26T05:09:59;102147.50;;;18.68;nan
70053;BME280;57398;52.032;4.376;2023-06-26T05:12:47;102156.69;;;18.82;nan
70053;BME280;57398;52.032;4.376;2023-06-26T05:15:36;102162.94;;;18.64;nan
70053;BME280;57398;52.032;4.376;2023-06-26T05:18:24;102173.09;;;18.72;nan
70053;BME280;57398;52.032;4.376;2023-06-26T05:21:12;102184.34;;;18.68;nan
70053;BME280;57398;52.032;4.376;2023-06-26T05:24:03;102191.97;;;18.52;nan
70053;BME280;57398;52.032;4.376;2023-06-26T05:26:51;102204.72;;;18.43;nan
70053;BME280;57398;52.032;4.376;2023-06-26T05:29:40;102218.22;;;18.47;nan
70053;BME280;57398;52.032;4.376;2023-06-26T05:32:30;102226.94;;;18.19;nan
70053;BME280;57398;52.032;4.376;2023-06-26T05:35:22;102234.50;;;18.15;nan
70053;BME280;57398;52.032;4.376;2023-06-26T05:38:11;102244.91;;;18.10;nan
70053;BME280;57398;52.032;4.376;2023-06-26T05:41:02;102246.16;;;18.19;nan
70053;BME280;57398;52.032;4.376;2023-06-26T05:43:50;102260.50;;;18.29;nan
70053;BME280;57398;52.032;4.376;2023-06-26T05:46:41;102273.06;;;18.84;nan
70053;BME280;57398;52.032;4.376;2023-06-26T05:49:29;102292.47;;;18.49;nan
70053;BME280;57398;52.032;4.376;2023-06-26T05:52:18;102282.34;;;18.00;nan
70053;BME280;57398;52.032;4.376;2023-06-26T05:55:07;102284.41;;;17.98;nan
70053;BME280;57398;52.032;4.376;2023-06-26T05:57:57;102280.59;;;18.06;nan
70053;BME280;57398;52.032;4.376;2023-06-26T06:00:46;102296.41;;;18.35;nan
70053;BME280;57398;52.032;4.376;2023-06-26T06:03:34;102307.44;;;18.49;nan
70053;BME280;57398;52.032;4.376;2023-06-26T06:06:22;102309.44;;;18.30;nan
70053;BME280;57398;52.032;4.376;2023-06-26T06:09:11;102312.66;;;17.91;nan
70053;BME280;57398;52.032;4.376;2023-06-26T06:11:59;102319.13;;;17.77;nan
70053;BME280;57398;52.032;4.376;2023-06-26T06:14:49;102311.91;;;18.19;nan
70053;BME280;57398;52.032;4.376;2023-06-26T06:17:37;102326.53;;;18.15;nan
70053;BME280;57398;52.032;4.376;2023-06-26T06:20:26;102334.34;;;18.39;nan
70053;BME280;57398;52.032;4.376;2023-06-26T06:23:14;102345.91;;;17.86;nan
70053;BME280;57398;52.032;4.376;2023-06-26T06:26:02;102325.31;;;17.71;nan
70053;BME280;57398;52.032;4.376;2023-06-26T06:28:50;102316.25;;;18.14;nan
70053;BME280;57398;52.032;4.376;2023-06-26T06:31:40;102342.75;;;18.24;nan
70053;BME280;57398;52.032;4.376;2023-06-26T06:34:28;102329.75;;;18.46;nan
70053;BME280;57398;52.032;4.376;2023-06-26T06:37:16;102337.09;;;18.73;nan
70053;BME280;57398;52.032;4.376;2023-06-26T06:40:05;102352.63;;;18.46;nan
70053;BME280;57398;52.032;4.376;2023-06-26T06:42:55;102366.31;;;18.07;nan
70053;BME280;57398;52.032;4.376;2023-06-26T06:45:44;102381.41;;;18.24;nan
70053;BME280;57398;52.032;4.376;2023-06-26T06:48:34;102399.84;;;18.24;nan
70053;BME280;57398;52.032;4.376;2023-06-26T06:51:23;102398.25;;;17.99;nan
70053;BME280;57398;52.032;4.376;2023-06-26T06:54:11;102402.81;;;17.92;nan
70053;BME280;57398;52.032;4.376;2023-06-26T06:56:59;102401.56;;;18.06;nan
70053;BME280;57398;52.032;4.376;2023-06-26T06:59:47;102416.06;;;17.97;nan
70053;BME280;57398;52.032;4.376;2023-06-26T07:02:36;102417.22;;;18.01;nan
70053;BME280;57398;52.032;4.376;2023-06-26T07:05:25;102422.94;;;18.21;nan
70053;BME280;57398;52.032;4.376;2023-06-26T07:08:14;102435.53;;;17.96;nan
70053;BME280;57398;52.032;4.376;2023-06-26T07:11:02;102429.00;;;17.98;nan
70053;BME280;57398;52.032;4.376;2023-06-26T07:13:51;102422.81;;;17.93;nan
70053;BME280;57398;52.032;4.376;2023-06-26T07:16:39;102433.34;;;18.16;nan
70053;BME280;57398;52.032;4.376;2023-06-26T07:19:27;102444.53;;;18.12;nan
70053;BME280;57398;52.032;4.376;2023-06-26T07:25:07;102449.66;;;18.18;nan
70053;BME280;57398;52.032;4.376;2023-06-26T07:27:56;102462.13;;;18.23;nan
70053;BME280;57398;52.032;4.376;2023-06-26T07:30:44;102476.53;;;18.32;nan
70053;BME280;57398;52.032;4.376;2023-06-26T07:33:33;102491.75;;;18.18;nan
70053;BME280;57398;52.032;4.376;2023-06-26T07:36:21;102496.56;;;18.21;nan
70053;BME280;57398;52.032;4.376;2023-06-26T07:39:11;102503.66;;;18.09;nan
70053;BME280;57398;52.032;4.376;2023-06-26T07:42:04;102513.03;;;18.17;nan
70053;BME280;57398;52.032;4.376;2023-06-26T07:44:52;102509.13;;;18.43;nan
70053;BME280;57398;52.032;4.376;2023-06-26T07:47:41;102536.25;;;18.32;nan
70053;BME280;57398;52.032;4.376;2023-06-26T07:50:29;102520.25;;;18.45;nan
70053;BME280;57398;52.032;4.376;2023-06-26T07:53:20;102541.19;;;18.40;nan
70053;BME280;57398;52.032;4.376;2023-06-26T07:56:10;102563.25;;;18.51;nan
70053;BME280;57398;52.032;4.376;2023-06-26T07:58:58;102556.16;;;18.75;nan
70053;BME280;57398;52.032;4.376;2023-06-26T08:01:48;102553.19;;;18.59;nan
70053;BME280;57398;52.032;4.376;2023-06-26T08:07:24;102565.66;;;18.40;nan
70053;BME280;57398;52.032;4.376;2023-06-26T08:13:02;102570.34;;;18.27;nan
70053;BME280;57398;52.032;4.376;2023-06-26T08:15:50;102576.97;;;18.29;nan
70053;BME280;57398;52.032;4.376;2023-06-26T08:18:38;102568.75;;;18.26;nan
70053;BME280;57398;52.032;4.376;2023-06-26T08:21:27;102585.69;;;18.65;nan
70053;BME280;57398;52.032;4.376;2023-06-26T08:24:16;102604.25;;;18.82;nan
70053;BME280;57398;52.032;4.376;2023-06-26T08:27:05;102623.22;;;18.60;nan
70053;BME280;57398;52.032;4.376;2023-06-26T08:29:56;102630.56;;;18.82;nan
70053;BME280;57398;52.032;4.376;2023-06-26T08:32:44;102647.06;;;18.89;nan
70053;BME280;57398;52.032;4.376;2023-06-26T08:35:32;102658.94;;;18.92;nan
70053;BME280;57398;52.032;4.376;2023-06-26T08:38:20;102678.53;;;18.84;nan
70053;BME280;57398;52.032;4.376;2023-06-26T08:43:56;102694.38;;;18.54;nan
70053;BME280;57398;52.032;4.376;2023-06-26T08:46:46;102709.13;;;18.55;nan
70053;BME280;57398;52.032;4.376;2023-06-26T08:49:42;102704.06;;;19.07;nan
70053;BME280;57398;52.032;4.376;2023-06-26T08:52:35;102705.78;;;19.13;nan
70053;BME280;57398;52.032;4.376;2023-06-26T08:55:26;102725.25;;;19.12;nan
70053;BME280;57398;52.032;4.376;2023-06-26T08:58:15;102718.84;;;19.20;nan
70053;BME280;57398;52.032;4.376;2023-06-26T09:01:04;102727.41;;;18.80;nan
70053;BME280;57398;52.032;4.376;2023-06-26T09:03:54;102732.72;;;18.61;nan
70053;BME280;57398;52.032;4.376;2023-06-26T09:06:42;102726.69;;;20.07;nan
70053;BME280;57398;52.032;4.376;2023-06-26T09:09:31;102751.84;;;19.98;nan
70053;BME280;57398;52.032;4.376;2023-06-26T09:12:20;102747.69;;;21.10;nan
70053;BME280;57398;52.032;4.376;2023-06-26T09:15:08;102765.41;;;21.49;nan
70053;BME280;57398;52.032;4.376;2023-06-26T09:17:57;102787.78;;;20.45;nan
70053;BME280;57398;52.032;4.376;2023-06-26T09:23:35;102791.72;;;20.42;nan
70053;BME280;57398;52.032;4.376;2023-06-26T09:29:14;102801.66;;;19.59;nan
70053;BME280;57398;52.032;4.376;2023-06-26T09:32:02;102806.63;;;20.08;nan
70053;BME280;57398;52.032;4.376;2023-06-26T09:34:52;102793.72;;;21.70;nan
70053;BME280;57398;52.032;4.376;2023-06-26T09:37:44;102785.03;;;21.97;nan
70053;BME280;57398;52.032;4.376;2023-06-26T09:40:32;102803.50;;;21.70;nan
70053;BME280;57398;52.032;4.376;2023-06-26T09:46:09;102807.34;;;21.40;nan
70053;BME280;57398;52.032;4.376;2023-06-26T09:48:58;102774.13;;;21.32;nan
70053;BME280;57398;52.032;4.376;2023-06-26T09:51:49;102807.75;;;20.98;nan
70053;BME280;57398;52.032;4.376;2023-06-26T09:54:39;102784.09;;;20.75;nan
70053;BME280;57398;52.032;4.376;2023-06-26T09:57:27;102773.53;;;21.42;nan
70053;BME280;57398;52.032;4.376;2023-06-26T10:00:16;102781.50;;;21.47;nan
70053;BME280;57398;52.032;4.376;2023-06-26T10:03:05;102746.78;;;22.10;nan
70053;BME280;57398;52.032;4.376;2023-06-26T10:05:54;102747.28;;;22.07;nan
70053;BME280;57398;52.032;4.376;2023-06-26T10:08:43;102742.72;;;21.36;nan
70053;BME280;57398;52.032;4.376;2023-06-26T10:11:37;102769.72;;;20.37;nan
70053;BME280;57398;52.032;4.376;2023-06-26T10:14:34;102795.50;;;20.92;nan
70053;BME280;57398;52.032;4.376;2023-06-26T10:17:25;102779.94;;;20.50;nan
70053;BME280;57398;52.032;4.376;2023-06-26T10:20:16;102851.63;;;21.33;nan
70053;BME280;57398;52.032;4.376;2023-06-26T10:23:05;102767.63;;;21.57;nan
70053;BME280;57398;52.032;4.376;2023-06-26T10:25:57;102768.66;;;21.17;nan
70053;BME280;57398;52.032;4.376;2023-06-26T10:28:50;102766.09;;;20.88;nan
70053;BME280;57398;52.032;4.376;2023-06-26T10:31:43;102756.47;;;21.99;nan
70053;BME280;57398;52.032;4.376;2023-06-26T10:34:33;102715.91;;;20.88;nan
70053;BME280;57398;52.032;4.376;2023-06-26T10:37:40;102762.91;;;20.41;nan
70053;BME280;57398;52.032;4.376;2023-06-26T10:40:40;102864.69;;;19.96;nan
70053;BME280;57398;52.032;4.376;2023-06-26T10:43:30;102837.91;;;20.28;nan
70053;BME280;57398;52.032;4.376;2023-06-26T10:46:21;102857.25;;;19.58;nan
70053;BME280;57398;52.032;4.376;2023-06-26T10:49:12;102843.13;;;20.40;nan
70053;BME280;57398;52.032;4.376;2023-06-26T10:52:01;102758.97;;;20.89;nan
70053;BME280;57398;52.032;4.376;2023-06-26T10:54:50;102711.47;;;21.72;nan
70053;BME280;57398;52.032;4.376;2023-06-26T10:57:38;102581.75;;;22.21;nan
70053;BME280;57398;52.032;4.376;2023-06-26T11:00:27;102507.38;;;21.53;nan
70053;BME280;57398;52.032;4.376;2023-06-26T11:06:14;102481.31;;;20.85;nan
70053;BME280;57398;52.032;4.376;2023-06-26T11:11:56;102461.44;;;21.32;nan
70053;BME280;57398;52.032;4.376;2023-06-26T11:14:51;102498.03;;;20.52;nan
70053;BME280;57398;52.032;4.376;2023-06-26T11:17:40;102429.94;;;20.98;nan
70053;BME280;57398;52.032;4.376;2023-06-26T11:20:30;102423.03;;;21.24;nan
70053;BME280;57398;52.032;4.376;2023-06-26T11:23:22;102398.72;;;20.46;nan
70053;BME280;57398;52.032;4.376;2023-06-26T11:26:15;102481.25;;;20.58;nan
70053;BME280;57398;52.032;4.376;2023-06-26T11:29:04;102461.34;;;20.95;nan
70053;BME280;57398;52.032;4.376;2023-06-26T11:31:58;102401.47;;;20.78;nan
70053;BME280;57398;52.032;4.376;2023-06-26T11:34:51;102373.75;;;20.09;nan
70053;BME280;57398;52.032;4.376;2023-06-26T11:37:41;102386.13;;;20.53;nan
70053;BME280;57398;52.032;4.376;2023-06-26T11:43:20;102302.03;;;21.31;nan
70053;BME280;57398;52.032;4.376;2023-06-26T11:46:08;102204.78;;;22.07;nan
70053;BME280;57398;52.032;4.376;2023-06-26T11:48:56;102163.94;;;21.62;nan
70053;BME280;57398;52.032;4.376;2023-06-26T11:51:46;102120.66;;;22.40;nan
70053;BME280;57398;52.032;4.376;2023-06-26T11:54:36;102263.56;;;20.71;nan
70053;BME280;57398;52.032;4.376;2023-06-26T11:57:24;102224.44;;;20.68;nan
70053;BME280;57398;52.032;4.376;2023-06-26T12:00:13;102336.38;;;20.62;nan
70053;BME280;57398;52.032;4.376;2023-06-26T12:03:03;102271.53;;;20.49;nan
70053;BME280;57398;52.032;4.376;2023-06-26T12:05:51;102259.28;;;20.65;nan
70053;BME280;57398;52.032;4.376;2023-06-26T12:08:40;102204.38;;;21.09;nan
70053;BME280;57398;52.032;4.376;2023-06-26T12:11:34;102205.31;;;21.30;nan
70053;BME280;57398;52.032;4.376;2023-06-26T12:14:25;102151.31;;;21.74;nan
70053;BME280;57398;52.032;4.376;2023-06-26T12:17:15;102165.03;;;21.76;nan
70053;BME280;57398;52.032;4.376;2023-06-26T12:20:04;102169.28;;;21.82;nan
70053;BME280;57398;52.032;4.376;2023-06-26T12:22:54;102220.59;;;21.23;nan
70053;BME280;57398;52.032;4.376;2023-06-26T12:25:43;102173.81;;;20.76;nan
70053;BME280;57398;52.032;4.376;2023-06-26T12:28:37;102180.84;;;19.79;nan
70053;BME280;57398;52.032;4.376;2023-06-26T12:31:25;102355.53;;;20.30;nan
70053;BME280;57398;52.032;4.376;2023-06-26T12:34:14;102102.09;;;21.93;nan
70053;BME280;57398;52.032;4.376;2023-06-26T12:37:06;102093.34;;;22.59;nan
70053;BME280;57398;52.032;4.376;2023-06-26T12:39:56;102086.56;;;21.08;nan
70053;BME280;57398;52.032;4.376;2023-06-26T12:42:45;102162.06;;;21.52;nan
70053;BME280;57398;52.032;4.376;2023-06-26T12:45:38;102107.91;;;21.80;nan
70053;BME280;57398;52.032;4.376;2023-06-26T12:48:37;102244.97;;;21.30;nan
70053;BME280;57398;52.032;4.376;2023-06-26T12:51:30;102121.38;;;21.63;nan
70053;BME280;57398;52.032;4.376;2023-06-26T12:54:19;102067.69;;;21.52;nan
70053;BME280;57398;52.032;4.376;2023-06-26T12:57:08;102058.47;;;22.11;nan
70053;BME280;57398;52.032;4.376;2023-06-26T12:59:56;101979.31;;;22.20;nan
70053;BME280;57398;52.032;4.376;2023-06-26T13:02:48;102061.59;;;21.42;nan
70053;BME280;57398;52.032;4.376;2023-06-26T13:05:37;102138.97;;;21.37;nan
70053;BME280;57398;52.032;4.376;2023-06-26T13:08:25;102216.91;;;21.24;nan
70053;BME280;57398;52.032;4.376;2023-06-26T13:11:14;102044.97;;;22.33;nan
70053;BME280;57398;52.032;4.376;2023-06-26T13:14:03;102019.81;;;22.05;nan
70053;BME280;57398;52.032;4.376;2023-06-26T13:16:57;101972.97;;;22.26;nan
70053;BME280;57398;52.032;4.376;2023-06-26T13:19:47;101954.78;;;21.53;nan
70053;BME280;57398;52.032;4.376;2023-06-26T13:22:35;102037.56;;;21.59;nan
70053;BME280;57398;52.032;4.376;2023-06-26T13:25:23;101927.88;;;22.47;nan
70053;BME280;57398;52.032;4.376;2023-06-26T13:28:12;101936.47;;;22.08;nan
70053;BME280;57398;52.032;4.376;2023-06-26T13:31:00;101873.09;;;21.36;nan
70053;BME280;57398;52.032;4.376;2023-06-26T13:36:37;101813.16;;;22.12;nan
70053;BME280;57398;52.032;4.376;2023-06-26T13:39:26;101895.72;;;20.65;nan
70053;BME280;57398;52.032;4.376;2023-06-26T13:42:14;101886.00;;;20.86;nan
70053;BME280;57398;52.032;4.376;2023-06-26T13:48:04;101951.84;;;20.40;nan
70053;BME280;57398;52.032;4.376;2023-06-26T13:50:53;101905.56;;;20.96;nan
70053;BME280;57398;52.032;4.376;2023-06-26T13:59:19;101862.56;;;21.46;nan
70053;BME280;57398;52.032;4.376;2023-06-26T14:02:09;101870.44;;;20.90;nan
70053;BME280;57398;52.032;4.376;2023-06-26T14:04:57;101863.56;;;21.09;nan
70053;BME280;57398;52.032;4.376;2023-06-26T14:07:45;101874.91;;;21.77;nan
70053;BME280;57398;52.032;4.376;2023-06-26T14:10:35;101882.34;;;22.45;nan
70053;BME280;57398;52.032;4.376;2023-06-26T14:13:24;101832.75;;;22.61;nan
70053;BME280;57398;52.032;4.376;2023-06-26T14:16:13;101763.28;;;23.32;nan
70053;BME280;57398;52.032;4.376;2023-06-26T14:19:02;101791.56;;;22.44;nan
70053;BME280;57398;52.032;4.376;2023-06-26T14:21:51;101841.09;;;21.63;nan
70053;BME280;57398;52.032;4.376;2023-06-26T14:24:39;101870.38;;;21.87;nan
70053;BME280;57398;52.032;4.376;2023-06-26T14:27:29;101835.78;;;21.79;nan
70053;BME280;57398;52.032;4.376;2023-06-26T14:30:17;101843.28;;;22.26;nan
70053;BME280;57398;52.032;4.376;2023-06-26T14:33:05;101869.34;;;21.78;nan
70053;BME280;57398;52.032;4.376;2023-06-26T14:38:42;101816.09;;;22.94;nan
70053;BME280;57398;52.032;4.376;2023-06-26T14:41:30;101815.22;;;22.70;nan
70053;BME280;57398;52.032;4.376;2023-06-26T14:44:20;101791.94;;;22.67;nan
70053;BME280;57398;52.032;4.376;2023-06-26T14:47:08;101855.09;;;21.69;nan
70053;BME280;57398;52.032;4.376;2023-06-26T14:49:56;101870.69;;;22.90;nan
70053;BME280;57398;52.032;4.376;2023-06-26T14:52:45;101834.56;;;22.65;nan
70053;BME280;57398;52.032;4.376;2023-06-26T14:55:33;101833.91;;;22.44;nan
70053;BME280;57398;52.032;4.376;2023-06-26T14:58:21;101762.56;;;23.51;nan
70053;BME280;57398;52.032;4.376;2023-06-26T15:01:11;101754.38;;;23.47;nan
70053;BME280;57398;52.032;4.376;2023-06-26T15:04:02;101785.34;;;22.64;nan
70053;BME280;57398;52.032;4.376;2023-06-26T15:09:38;101843.38;;;21.95;nan
70053;BME280;57398;52.032;4.376;2023-06-26T15:15:15;101795.25;;;22.48;nan
70053;BME280;57398;52.032;4.376;2023-06-26T15:18:05;101793.25;;;22.30;nan
70053;BME280;57398;52.032;4.376;2023-06-26T15:20:54;101774.84;;;22.83;nan
70053;BME280;57398;52.032;4.376;2023-06-26T15:23:42;101778.13;;;23.04;nan
70053;BME280;57398;52.032;4.376;2023-06-26T15:26:30;101818.31;;;22.43;nan
70053;BME280;57398;52.032;4.376;2023-06-26T15:29:19;101868.88;;;21.15;nan
70053;BME280;57398;52.032;4.376;2023-06-26T15:32:07;101843.63;;;22.59;nan
70053;BME280;57398;52.032;4.376;2023-06-26T15:34:57;101871.00;;;21.33;nan
70053;BME280;57398;52.032;4.376;2023-06-26T15:37:45;101861.59;;;22.07;nan
70053;BME280;57398;52.032;4.376;2023-06-26T15:40:33;101778.00;;;22.85;nan
70053;BME280;57398;52.032;4.376;2023-06-26T15:43:22;101776.31;;;22.21;nan
70053;BME280;57398;52.032;4.376;2023-06-26T15:46:10;101810.22;;;22.18;nan
70053;BME280;57398;52.032;4.376;2023-06-26T15:48:59;101783.25;;;22.90;nan
70053;BME280;57398;52.032;4.376;2023-06-26T15:51:48;101768.63;;;22.69;nan
70053;BME280;57398;52.032;4.376;2023-06-26T15:54:36;101772.81;;;23.04;nan
70053;BME280;57398;52.032;4.376;2023-06-26T15:57:25;101758.59;;;23.00;nan
70053;BME280;57398;52.032;4.376;2023-06-26T16:00:14;101841.41;;;21.41;nan
70053;BME280;57398;52.032;4.376;2023-06-26T16:03:03;101832.16;;;22.19;nan
70053;BME280;57398;52.032;4.376;2023-06-26T16:05:51;101812.22;;;21.77;nan
70053;BME280;57398;52.032;4.376;2023-06-26T16:08:41;101825.16;;;21.89;nan
70053;BME280;57398;52.032;4.376;2023-06-26T16:11:31;101769.84;;;22.42;nan
70053;BME280;57398;52.032;4.376;2023-06-26T16:14:19;101746.72;;;22.87;nan
70053;BME280;57398;52.032;4.376;2023-06-26T16:17:08;101740.31;;;22.93;nan
70053;BME280;57398;52.032;4.376;2023-06-26T16:19:56;101741.50;;;22.48;nan
70053;BME280;57398;52.032;4.376;2023-06-26T16:25:34;101744.22;;;22.72;nan